sensor_id;sensor_type;location;lat;lon;timestamp;P1;durP1;ratioP1;P2;durP2;ratioP2
62056;SDS011;48016;50.284;18.860;2023-07-22T00:02:25;14.70;;;13.20;;
62056;SDS011;48016;50.284;18.860;2023-07-22T00:04:51;14.20;;;12.80;;
62056;SDS011;48016;50.284;18.860;2023-07-22T00:07:18;14.80;;;12.70;;
62056;SDS011;48016;50.284;18.860;2023-07-22T00:09:45;14.60;;;13.10;;
62056;SDS011;48016;50.284;18.860;2023-07-22T00:12:11;15.30;;;13.80;;
62056;SDS011;48016;50.284;18.860;2023-07-22T00:14:39;16.00;;;13.30;;
62056;SDS011;48016;50.284;18.860;2023-07-22T00:17:07;14.80;;;13.30;;
62056;SDS011;48016;50.284;18.860;2023-07-22T00:19:34;14.20;;;12.80;;
62056;SDS011;48016;50.284;18.860;2023-07-22T00:22:00;14.60;;;13.10;;
62056;SDS011;48016;50.284;18.860;2023-07-22T00:24:27;15.00;;;13.30;;
62056;SDS011;48016;50.284;18.860;2023-07-22T00:29:21;15.50;;;13.40;;
62056;SDS011;48016;50.284;18.860;2023-07-22T00:31:48;15.80;;;14.20;;
62056;SDS011;48016;50.284;18.860;2023-07-22T00:34:15;16.10;;;14.20;;
62056;SDS011;48016;50.284;18.860;2023-07-22T00:36:42;14.80;;;13.20;;
62056;SDS011;48016;50.284;18.860;2023-07-22T00:39:10;15.50;;;13.00;;
62056;SDS011;48016;50.284;18.860;2023-07-22T00:41:40;14.30;;;12.50;;
62056;SDS011;48016;50.284;18.860;2023-07-22T00:44:08;15.60;;;13.60;;
62056;SDS011;48016;50.284;18.860;2023-07-22T00:46:35;15.30;;;13.80;;
62056;SDS011;48016;50.284;18.860;2023-07-22T00:49:02;14.20;;;12.80;;
62056;SDS011;48016;50.284;18.860;2023-07-22T00:51:28;15.20;;;13.70;;
62056;SDS011;48016;50.284;18.860;2023-07-22T00:53:55;16.90;;;13.40;;
62056;SDS011;48016;50.284;18.860;2023-07-22T00:56:22;17.70;;;14.30;;
62056;SDS011;48016;50.284;18.860;2023-07-22T00:58:48;14.00;;;12.60;;
62056;SDS011;48016;50.284;18.860;2023-07-22T01:01:15;15.80;;;12.30;;
62056;SDS011;48016;50.284;18.860;2023-07-22T01:03:42;14.40;;;12.50;;
62056;SDS011;48016;50.284;18.860;2023-07-22T01:06:09;13.40;;;11.70;;
62056;SDS011;48016;50.284;18.860;2023-07-22T01:08:37;14.00;;;11.50;;
62056;SDS011;48016;50.284;18.860;2023-07-22T01:11:03;12.60;;;11.30;;
62056;SDS011;48016;50.284;18.860;2023-07-22T01:13:30;12.80;;;10.90;;
62056;SDS011;48016;50.284;18.860;2023-07-22T01:15:57;12.70;;;11.20;;
62056;SDS011;48016;50.284;18.860;2023-07-22T01:18:24;13.00;;;10.90;;
62056;SDS011;48016;50.284;18.860;2023-07-22T01:20:50;11.60;;;10.20;;
62056;SDS011;48016;50.284;18.860;2023-07-22T01:23:17;13.40;;;10.50;;
62056;SDS011;48016;50.284;18.860;2023-07-22T01:25:44;10.20;;;9.20;;
62056;SDS011;48016;50.284;18.860;2023-07-22T01:28:11;10.70;;;9.60;;
62056;SDS011;48016;50.284;18.860;2023-07-22T01:30:37;12.00;;;9.50;;
62056;SDS011;48016;50.284;18.860;2023-07-22T01:33:04;10.40;;;9.30;;
62056;SDS011;48016;50.284;18.860;2023-07-22T01:35:30;9.20;;;8.30;;
62056;SDS011;48016;50.284;18.860;2023-07-22T01:37:57;9.90;;;8.40;;
62056;SDS011;48016;50.284;18.860;2023-07-22T01:40:24;9.00;;;8.10;;
62056;SDS011;48016;50.284;18.860;2023-07-22T01:42:51;10.90;;;8.00;;
62056;SDS011;48016;50.284;18.860;2023-07-22T01:45:18;10.30;;;8.50;;
62056;SDS011;48016;50.284;18.860;2023-07-22T01:47:44;12.00;;;9.30;;
62056;SDS011;48016;50.284;18.860;2023-07-22T01:50:11;10.50;;;8.80;;
62056;SDS011;48016;50.284;18.860;2023-07-22T01:52:37;11.90;;;9.70;;
62056;SDS011;48016;50.284;18.860;2023-07-22T01:55:04;11.20;;;9.60;;
62056;SDS011;48016;50.284;18.860;2023-07-22T01:57:32;11.50;;;10.20;;
62056;SDS011;48016;50.284;18.860;2023-07-22T01:59:59;11.40;;;9.90;;
62056;SDS011;48016;50.284;18.860;2023-07-22T02:02:26;12.20;;;9.90;;
62056;SDS011;48016;50.284;18.860;2023-07-22T02:04:52;11.40;;;10.20;;
62056;SDS011;48016;50.284;18.860;2023-07-22T02:07:19;12.70;;;10.00;;
62056;SDS011;48016;50.284;18.860;2023-07-22T02:09:46;11.40;;;10.30;;
62056;SDS011;48016;50.284;18.860;2023-07-22T02:12:12;12.00;;;10.30;;
62056;SDS011;48016;50.284;18.860;2023-07-22T02:14:39;15.10;;;10.40;;
62056;SDS011;48016;50.284;18.860;2023-07-22T02:17:06;11.50;;;10.00;;
62056;SDS011;48016;50.284;18.860;2023-07-22T02:19:35;10.70;;;9.60;;
62056;SDS011;48016;50.284;18.860;2023-07-22T02:22:03;11.00;;;9.90;;
62056;SDS011;48016;50.284;18.860;2023-07-22T02:24:30;13.30;;;10.00;;
62056;SDS011;48016;50.284;18.860;2023-07-22T02:26:57;12.40;;;10.10;;
62056;SDS011;48016;50.284;18.860;2023-07-22T02:29:24;14.40;;;10.20;;
62056;SDS011;48016;50.284;18.860;2023-07-22T02:31:51;13.30;;;10.30;;
62056;SDS011;48016;50.284;18.860;2023-07-22T02:34:17;14.70;;;10.70;;
62056;SDS011;48016;50.284;18.860;2023-07-22T02:36:44;13.20;;;10.70;;
62056;SDS011;48016;50.284;18.860;2023-07-22T02:39:10;13.30;;;10.80;;
62056;SDS011;48016;50.284;18.860;2023-07-22T02:41:37;14.20;;;11.40;;
62056;SDS011;48016;50.284;18.860;2023-07-22T02:44:03;12.60;;;11.00;;
62056;SDS011;48016;50.284;18.860;2023-07-22T02:46:30;12.90;;;11.30;;
62056;SDS011;48016;50.284;18.860;2023-07-22T02:48:57;13.60;;;10.60;;
62056;SDS011;48016;50.284;18.860;2023-07-22T02:51:25;14.50;;;10.40;;
62056;SDS011;48016;50.284;18.860;2023-07-22T02:53:51;11.60;;;10.30;;
62056;SDS011;48016;50.284;18.860;2023-07-22T02:56:18;11.30;;;10.10;;
62056;SDS011;48016;50.284;18.860;2023-07-22T02:58:45;12.40;;;10.30;;
62056;SDS011;48016;50.284;18.860;2023-07-22T03:01:11;12.90;;;10.30;;
62056;SDS011;48016;50.284;18.860;2023-07-22T03:03:38;12.90;;;10.70;;
62056;SDS011;48016;50.284;18.860;2023-07-22T03:06:06;11.50;;;10.30;;
62056;SDS011;48016;50.284;18.860;2023-07-22T03:08:34;15.40;;;10.70;;
62056;SDS011;48016;50.284;18.860;2023-07-22T03:11:01;13.90;;;11.20;;
62056;SDS011;48016;50.284;18.860;2023-07-22T03:13:27;14.80;;;11.70;;
62056;SDS011;48016;50.284;18.860;2023-07-22T03:15:56;14.70;;;11.20;;
62056;SDS011;48016;50.284;18.860;2023-07-22T03:18:23;13.40;;;12.00;;
62056;SDS011;48016;50.284;18.860;2023-07-22T03:20:49;15.40;;;12.60;;
62056;SDS011;48016;50.284;18.860;2023-07-22T03:23:16;15.20;;;13.60;;
62056;SDS011;48016;50.284;18.860;2023-07-22T03:25:42;15.50;;;13.90;;
62056;SDS011;48016;50.284;18.860;2023-07-22T03:28:09;20.70;;;15.10;;
62056;SDS011;48016;50.284;18.860;2023-07-22T03:30:35;16.30;;;14.40;;
62056;SDS011;48016;50.284;18.860;2023-07-22T03:33:02;18.70;;;15.30;;
62056;SDS011;48016;50.284;18.860;2023-07-22T03:35:29;18.70;;;14.70;;
62056;SDS011;48016;50.284;18.860;2023-07-22T03:37:55;17.60;;;14.80;;
62056;SDS011;48016;50.284;18.860;2023-07-22T03:40:22;18.70;;;15.00;;
62056;SDS011;48016;50.284;18.860;2023-07-22T03:42:54;16.10;;;14.00;;
62056;SDS011;48016;50.284;18.860;2023-07-22T03:45:22;17.70;;;14.30;;
62056;SDS011;48016;50.284;18.860;2023-07-22T03:47:52;19.10;;;14.60;;
62056;SDS011;48016;50.284;18.860;2023-07-22T03:50:23;15.40;;;13.70;;
62056;SDS011;48016;50.284;18.860;2023-07-22T03:52:50;14.40;;;12.90;;
62056;SDS011;48016;50.284;18.860;2023-07-22T03:55:17;16.10;;;13.10;;
62056;SDS011;48016;50.284;18.860;2023-07-22T03:57:45;17.80;;;13.50;;
62056;SDS011;48016;50.284;18.860;2023-07-22T04:00:12;14.80;;;13.10;;
62056;SDS011;48016;50.284;18.860;2023-07-22T04:02:39;15.30;;;12.90;;
62056;SDS011;48016;50.284;18.860;2023-07-22T04:05:05;14.80;;;12.80;;
62056;SDS011;48016;50.284;18.860;2023-07-22T04:07:32;15.90;;;13.10;;
62056;SDS011;48016;50.284;18.860;2023-07-22T04:09:59;16.10;;;12.80;;
62056;SDS011;48016;50.284;18.860;2023-07-22T04:12:25;17.80;;;13.60;;
62056;SDS011;48016;50.284;18.860;2023-07-22T04:14:52;15.90;;;13.00;;
62056;SDS011;48016;50.284;18.860;2023-07-22T04:17:19;15.80;;;12.40;;
62056;SDS011;48016;50.284;18.860;2023-07-22T04:19:45;18.90;;;13.60;;
62056;SDS011;48016;50.284;18.860;2023-07-22T04:22:12;14.50;;;12.80;;
62056;SDS011;48016;50.284;18.860;2023-07-22T04:24:39;16.50;;;12.60;;
62056;SDS011;48016;50.284;18.860;2023-07-22T04:27:05;15.70;;;12.10;;
62056;SDS011;48016;50.284;18.860;2023-07-22T04:29:32;16.60;;;12.60;;
62056;SDS011;48016;50.284;18.860;2023-07-22T04:31:59;16.10;;;11.90;;
62056;SDS011;48016;50.284;18.860;2023-07-22T04:34:30;13.20;;;11.80;;
62056;SDS011;48016;50.284;18.860;2023-07-22T04:36:57;13.90;;;11.30;;
62056;SDS011;48016;50.284;18.860;2023-07-22T04:39:24;15.50;;;11.10;;
62056;SDS011;48016;50.284;18.860;2023-07-22T04:41:51;14.90;;;10.70;;
62056;SDS011;48016;50.284;18.860;2023-07-22T04:44:18;12.40;;;10.00;;
62056;SDS011;48016;50.284;18.860;2023-07-22T04:46:45;12.20;;;10.30;;
62056;SDS011;48016;50.284;18.860;2023-07-22T04:49:12;14.00;;;11.00;;
62056;SDS011;48016;50.284;18.860;2023-07-22T04:51:39;11.90;;;10.20;;
62056;SDS011;48016;50.284;18.860;2023-07-22T04:54:06;11.10;;;9.60;;
62056;SDS011;48016;50.284;18.860;2023-07-22T04:56:32;10.70;;;8.90;;
62056;SDS011;48016;50.284;18.860;2023-07-22T04:58:59;13.30;;;9.40;;
62056;SDS011;48016;50.284;18.860;2023-07-22T05:01:25;9.30;;;7.80;;
62056;SDS011;48016;50.284;18.860;2023-07-22T05:03:52;11.00;;;7.90;;
62056;SDS011;48016;50.284;18.860;2023-07-22T05:06:21;8.80;;;7.60;;
62056;SDS011;48016;50.284;18.860;2023-07-22T05:08:47;8.50;;;6.30;;
62056;SDS011;48016;50.284;18.860;2023-07-22T05:11:14;8.60;;;6.60;;
62056;SDS011;48016;50.284;18.860;2023-07-22T05:13:41;8.50;;;6.20;;
62056;SDS011;48016;50.284;18.860;2023-07-22T05:16:08;7.30;;;6.50;;
62056;SDS011;48016;50.284;18.860;2023-07-22T05:18:34;9.10;;;6.20;;
62056;SDS011;48016;50.284;18.860;2023-07-22T05:21:01;12.40;;;6.00;;
62056;SDS011;48016;50.284;18.860;2023-07-22T05:23:27;10.10;;;6.00;;
62056;SDS011;48016;50.284;18.860;2023-07-22T05:25:54;8.10;;;5.90;;
62056;SDS011;48016;50.284;18.860;2023-07-22T05:28:20;8.80;;;5.30;;
62056;SDS011;48016;50.284;18.860;2023-07-22T05:30:47;9.30;;;5.50;;
62056;SDS011;48016;50.284;18.860;2023-07-22T05:33:14;6.60;;;5.10;;
62056;SDS011;48016;50.284;18.860;2023-07-22T05:35:41;8.30;;;5.10;;
62056;SDS011;48016;50.284;18.860;2023-07-22T05:38:07;7.90;;;5.50;;
62056;SDS011;48016;50.284;18.860;2023-07-22T05:40:34;7.90;;;5.30;;
62056;SDS011;48016;50.284;18.860;2023-07-22T05:43:01;7.70;;;5.30;;
62056;SDS011;48016;50.284;18.860;2023-07-22T05:45:27;6.40;;;4.80;;
62056;SDS011;48016;50.284;18.860;2023-07-22T05:47:54;8.90;;;5.10;;
62056;SDS011;48016;50.284;18.860;2023-07-22T05:50:21;7.50;;;5.10;;
62056;SDS011;48016;50.284;18.860;2023-07-22T05:52:47;8.80;;;5.10;;
62056;SDS011;48016;50.284;18.860;2023-07-22T05:55:14;10.10;;;5.00;;
62056;SDS011;48016;50.284;18.860;2023-07-22T05:57:41;5.80;;;4.90;;
62056;SDS011;48016;50.284;18.860;2023-07-22T06:00:08;5.90;;;4.70;;
62056;SDS011;48016;50.284;18.860;2023-07-22T06:05:01;9.40;;;5.30;;
62056;SDS011;48016;50.284;18.860;2023-07-22T06:07:28;6.00;;;4.50;;
62056;SDS011;48016;50.284;18.860;2023-07-22T06:09:55;5.70;;;4.60;;
62056;SDS011;48016;50.284;18.860;2023-07-22T06:12:21;5.40;;;4.80;;
62056;SDS011;48016;50.284;18.860;2023-07-22T06:14:48;6.20;;;4.80;;
62056;SDS011;48016;50.284;18.860;2023-07-22T06:17:14;6.10;;;4.90;;
62056;SDS011;48016;50.284;18.860;2023-07-22T06:19:41;5.80;;;4.50;;
62056;SDS011;48016;50.284;18.860;2023-07-22T06:22:07;5.20;;;4.00;;
62056;SDS011;48016;50.284;18.860;2023-07-22T06:24:34;5.70;;;4.20;;
62056;SDS011;48016;50.284;18.860;2023-07-22T06:27:00;5.90;;;4.20;;
62056;SDS011;48016;50.284;18.860;2023-07-22T06:29:27;4.40;;;3.40;;
62056;SDS011;48016;50.284;18.860;2023-07-22T06:31:54;4.90;;;3.50;;
62056;SDS011;48016;50.284;18.860;2023-07-22T06:34:20;5.80;;;4.10;;
62056;SDS011;48016;50.284;18.860;2023-07-22T06:36:47;6.30;;;3.60;;
62056;SDS011;48016;50.284;18.860;2023-07-22T06:39:14;5.80;;;3.40;;
62056;SDS011;48016;50.284;18.860;2023-07-22T06:41:40;3.90;;;3.30;;
62056;SDS011;48016;50.284;18.860;2023-07-22T06:44:07;6.20;;;3.40;;
62056;SDS011;48016;50.284;18.860;2023-07-22T06:46:33;4.90;;;3.20;;
62056;SDS011;48016;50.284;18.860;2023-07-22T06:49:00;5.00;;;3.20;;
62056;SDS011;48016;50.284;18.860;2023-07-22T06:51:26;3.80;;;3.10;;
62056;SDS011;48016;50.284;18.860;2023-07-22T06:53:53;5.50;;;2.90;;
62056;SDS011;48016;50.284;18.860;2023-07-22T06:56:20;3.40;;;2.70;;
62056;SDS011;48016;50.284;18.860;2023-07-22T06:58:46;3.70;;;3.10;;
62056;SDS011;48016;50.284;18.860;2023-07-22T07:01:13;3.60;;;3.10;;
62056;SDS011;48016;50.284;18.860;2023-07-22T07:06:06;4.10;;;2.70;;
62056;SDS011;48016;50.284;18.860;2023-07-22T07:08:33;4.10;;;2.70;;
62056;SDS011;48016;50.284;18.860;2023-07-22T07:11:00;4.40;;;3.10;;
62056;SDS011;48016;50.284;18.860;2023-07-22T07:13:27;3.90;;;3.00;;
62056;SDS011;48016;50.284;18.860;2023-07-22T07:15:54;4.10;;;3.00;;
62056;SDS011;48016;50.284;18.860;2023-07-22T07:18:21;4.50;;;3.00;;
62056;SDS011;48016;50.284;18.860;2023-07-22T07:20:47;6.80;;;3.30;;
62056;SDS011;48016;50.284;18.860;2023-07-22T07:23:16;4.10;;;3.10;;
62056;SDS011;48016;50.284;18.860;2023-07-22T07:25:43;4.20;;;2.80;;
62056;SDS011;48016;50.284;18.860;2023-07-22T07:28:09;3.90;;;2.30;;
62056;SDS011;48016;50.284;18.860;2023-07-22T07:30:37;4.30;;;2.60;;
62056;SDS011;48016;50.284;18.860;2023-07-22T07:33:04;4.00;;;2.70;;
62056;SDS011;48016;50.284;18.860;2023-07-22T07:35:31;4.60;;;2.40;;
62056;SDS011;48016;50.284;18.860;2023-07-22T07:37:57;3.60;;;2.50;;
62056;SDS011;48016;50.284;18.860;2023-07-22T07:40:24;3.20;;;2.70;;
62056;SDS011;48016;50.284;18.860;2023-07-22T07:42:52;6.40;;;2.40;;
62056;SDS011;48016;50.284;18.860;2023-07-22T07:45:19;4.70;;;2.80;;
62056;SDS011;48016;50.284;18.860;2023-07-22T07:47:46;3.80;;;2.40;;
62056;SDS011;48016;50.284;18.860;2023-07-22T07:50:13;3.50;;;2.40;;
62056;SDS011;48016;50.284;18.860;2023-07-22T07:52:39;3.80;;;2.50;;
62056;SDS011;48016;50.284;18.860;2023-07-22T07:55:06;3.50;;;2.80;;
62056;SDS011;48016;50.284;18.860;2023-07-22T07:57:33;4.30;;;2.60;;
62056;SDS011;48016;50.284;18.860;2023-07-22T07:59:59;3.30;;;2.30;;
62056;SDS011;48016;50.284;18.860;2023-07-22T08:02:26;3.70;;;2.40;;
62056;SDS011;48016;50.284;18.860;2023-07-22T08:12:16;3.30;;;2.30;;
62056;SDS011;48016;50.284;18.860;2023-07-22T08:14:43;4.20;;;2.40;;
62056;SDS011;48016;50.284;18.860;2023-07-22T08:17:10;4.00;;;2.30;;
62056;SDS011;48016;50.284;18.860;2023-07-22T08:19:36;2.90;;;2.20;;
62056;SDS011;48016;50.284;18.860;2023-07-22T08:22:03;2.60;;;2.10;;
62056;SDS011;48016;50.284;18.860;2023-07-22T08:24:30;3.30;;;2.20;;
62056;SDS011;48016;50.284;18.860;2023-07-22T08:26:56;3.20;;;2.20;;
62056;SDS011;48016;50.284;18.860;2023-07-22T08:29:23;4.00;;;2.50;;
62056;SDS011;48016;50.284;18.860;2023-07-22T08:31:50;3.20;;;2.40;;
62056;SDS011;48016;50.284;18.860;2023-07-22T08:34:16;3.30;;;2.30;;
62056;SDS011;48016;50.284;18.860;2023-07-22T08:36:43;2.80;;;2.10;;
62056;SDS011;48016;50.284;18.860;2023-07-22T08:39:10;3.00;;;2.40;;
62056;SDS011;48016;50.284;18.860;2023-07-22T08:41:36;3.60;;;2.20;;
62056;SDS011;48016;50.284;18.860;2023-07-22T08:44:04;3.50;;;2.40;;
62056;SDS011;48016;50.284;18.860;2023-07-22T08:46:34;4.20;;;2.20;;
62056;SDS011;48016;50.284;18.860;2023-07-22T08:49:03;3.60;;;2.50;;
62056;SDS011;48016;50.284;18.860;2023-07-22T08:51:32;2.80;;;2.10;;
62056;SDS011;48016;50.284;18.860;2023-07-22T08:53:59;3.30;;;2.40;;
62056;SDS011;48016;50.284;18.860;2023-07-22T08:56:27;4.40;;;2.30;;
62056;SDS011;48016;50.284;18.860;2023-07-22T08:58:55;3.70;;;2.60;;
62056;SDS011;48016;50.284;18.860;2023-07-22T09:01:21;2.80;;;2.20;;
62056;SDS011;48016;50.284;18.860;2023-07-22T09:03:49;3.80;;;2.30;;
62056;SDS011;48016;50.284;18.860;2023-07-22T09:06:19;4.20;;;2.80;;
62056;SDS011;48016;50.284;18.860;2023-07-22T09:08:46;4.10;;;2.40;;
62056;SDS011;48016;50.284;18.860;2023-07-22T09:11:14;2.90;;;2.50;;
62056;SDS011;48016;50.284;18.860;2023-07-22T09:13:41;5.30;;;3.70;;
62056;SDS011;48016;50.284;18.860;2023-07-22T09:16:11;4.50;;;2.40;;
62056;SDS011;48016;50.284;18.860;2023-07-22T09:18:39;3.80;;;2.50;;
62056;SDS011;48016;50.284;18.860;2023-07-22T09:21:05;2.70;;;2.10;;
62056;SDS011;48016;50.284;18.860;2023-07-22T09:23:32;4.50;;;2.50;;
62056;SDS011;48016;50.284;18.860;2023-07-22T09:26:13;3.20;;;2.40;;
62056;SDS011;48016;50.284;18.860;2023-07-22T09:28:48;5.10;;;2.80;;
62056;SDS011;48016;50.284;18.860;2023-07-22T09:31:16;3.30;;;2.20;;
62056;SDS011;48016;50.284;18.860;2023-07-22T09:33:42;3.50;;;2.60;;
62056;SDS011;48016;50.284;18.860;2023-07-22T09:36:10;5.90;;;2.30;;
62056;SDS011;48016;50.284;18.860;2023-07-22T09:38:40;3.90;;;2.70;;
62056;SDS011;48016;50.284;18.860;2023-07-22T09:41:06;3.80;;;2.90;;
62056;SDS011;48016;50.284;18.860;2023-07-22T09:43:37;6.10;;;2.90;;
62056;SDS011;48016;50.284;18.860;2023-07-22T09:46:05;3.40;;;2.90;;
62056;SDS011;48016;50.284;18.860;2023-07-22T09:48:40;5.00;;;2.40;;
62056;SDS011;48016;50.284;18.860;2023-07-22T09:51:11;3.40;;;2.60;;
62056;SDS011;48016;50.284;18.860;2023-07-22T09:53:59;3.80;;;2.60;;
62056;SDS011;48016;50.284;18.860;2023-07-22T09:56:27;5.20;;;3.00;;
62056;SDS011;48016;50.284;18.860;2023-07-22T09:58:53;4.40;;;2.60;;
62056;SDS011;48016;50.284;18.860;2023-07-22T10:01:23;5.10;;;2.30;;
62056;SDS011;48016;50.284;18.860;2023-07-22T10:03:54;3.70;;;2.10;;
62056;SDS011;48016;50.284;18.860;2023-07-22T10:06:28;2.80;;;2.20;;
62056;SDS011;48016;50.284;18.860;2023-07-22T10:08:56;3.90;;;2.20;;
62056;SDS011;48016;50.284;18.860;2023-07-22T10:11:23;3.90;;;2.30;;
62056;SDS011;48016;50.284;18.860;2023-07-22T10:13:53;2.90;;;2.30;;
62056;SDS011;48016;50.284;18.860;2023-07-22T10:16:19;4.90;;;2.40;;
62056;SDS011;48016;50.284;18.860;2023-07-22T10:18:46;4.10;;;2.30;;
62056;SDS011;48016;50.284;18.860;2023-07-22T10:21:15;3.30;;;2.40;;
62056;SDS011;48016;50.284;18.860;2023-07-22T10:23:42;4.10;;;2.40;;
62056;SDS011;48016;50.284;18.860;2023-07-22T10:26:12;5.80;;;2.40;;
62056;SDS011;48016;50.284;18.860;2023-07-22T10:28:40;4.30;;;2.20;;
62056;SDS011;48016;50.284;18.860;2023-07-22T10:31:08;3.90;;;2.00;;
62056;SDS011;48016;50.284;18.860;2023-07-22T10:33:35;2.60;;;2.10;;
62056;SDS011;48016;50.284;18.860;2023-07-22T10:36:03;3.20;;;2.50;;
62056;SDS011;48016;50.284;18.860;2023-07-22T10:38:34;3.40;;;2.20;;
62056;SDS011;48016;50.284;18.860;2023-07-22T10:41:10;4.00;;;2.00;;
62056;SDS011;48016;50.284;18.860;2023-07-22T10:43:39;2.30;;;1.90;;
62056;SDS011;48016;50.284;18.860;2023-07-22T10:48:36;3.20;;;2.40;;
62056;SDS011;48016;50.284;18.860;2023-07-22T10:51:06;2.60;;;2.20;;
62056;SDS011;48016;50.284;18.860;2023-07-22T10:53:43;3.20;;;2.10;;
62056;SDS011;48016;50.284;18.860;2023-07-22T10:56:19;2.50;;;2.10;;
62056;SDS011;48016;50.284;18.860;2023-07-22T11:01:23;3.10;;;2.20;;
62056;SDS011;48016;50.284;18.860;2023-07-22T11:12:00;2.40;;;2.00;;
62056;SDS011;48016;50.284;18.860;2023-07-22T11:14:27;3.50;;;2.30;;
62056;SDS011;48016;50.284;18.860;2023-07-22T11:16:59;3.60;;;1.80;;
62056;SDS011;48016;50.284;18.860;2023-07-22T11:19:30;2.60;;;2.10;;
62056;SDS011;48016;50.284;18.860;2023-07-22T11:21:58;5.10;;;2.00;;
62056;SDS011;48016;50.284;18.860;2023-07-22T11:24:25;3.20;;;2.20;;
62056;SDS011;48016;50.284;18.860;2023-07-22T11:26:52;2.30;;;2.00;;
62056;SDS011;48016;50.284;18.860;2023-07-22T11:29:20;3.80;;;2.20;;
62056;SDS011;48016;50.284;18.860;2023-07-22T11:31:47;2.40;;;2.20;;
62056;SDS011;48016;50.284;18.860;2023-07-22T11:34:15;4.10;;;2.40;;
62056;SDS011;48016;50.284;18.860;2023-07-22T11:36:43;3.30;;;2.10;;
62056;SDS011;48016;50.284;18.860;2023-07-22T11:39:11;3.90;;;2.10;;
62056;SDS011;48016;50.284;18.860;2023-07-22T11:41:42;4.90;;;2.20;;
62056;SDS011;48016;50.284;18.860;2023-07-22T11:44:13;2.90;;;2.20;;
62056;SDS011;48016;50.284;18.860;2023-07-22T11:49:29;3.90;;;2.20;;
62056;SDS011;48016;50.284;18.860;2023-07-22T11:52:07;5.50;;;2.30;;
62056;SDS011;48016;50.284;18.860;2023-07-22T11:54:38;4.80;;;2.30;;
62056;SDS011;48016;50.284;18.860;2023-07-22T11:57:09;3.20;;;2.60;;
62056;SDS011;48016;50.284;18.860;2023-07-22T11:59:47;4.50;;;2.60;;
62056;SDS011;48016;50.284;18.860;2023-07-22T12:02:15;3.00;;;2.30;;
62056;SDS011;48016;50.284;18.860;2023-07-22T12:07:23;3.00;;;2.20;;
62056;SDS011;48016;50.284;18.860;2023-07-22T12:09:57;2.50;;;2.10;;
62056;SDS011;48016;50.284;18.860;2023-07-22T12:12:39;4.50;;;2.40;;
62056;SDS011;48016;50.284;18.860;2023-07-22T12:15:20;4.60;;;2.40;;
62056;SDS011;48016;50.284;18.860;2023-07-22T12:17:53;5.50;;;2.60;;
62056;SDS011;48016;50.284;18.860;2023-07-22T12:20:29;6.30;;;2.60;;
62056;SDS011;48016;50.284;18.860;2023-07-22T12:22:59;4.70;;;2.50;;
62056;SDS011;48016;50.284;18.860;2023-07-22T12:27:53;3.40;;;2.40;;
62056;SDS011;48016;50.284;18.860;2023-07-22T12:30:20;3.70;;;2.50;;
62056;SDS011;48016;50.284;18.860;2023-07-22T12:35:14;3.30;;;2.60;;
62056;SDS011;48016;50.284;18.860;2023-07-22T12:37:40;3.50;;;2.60;;
62056;SDS011;48016;50.284;18.860;2023-07-22T12:40:07;3.30;;;2.50;;
62056;SDS011;48016;50.284;18.860;2023-07-22T12:42:34;3.90;;;2.50;;
62056;SDS011;48016;50.284;18.860;2023-07-22T12:45:02;4.10;;;3.10;;
62056;SDS011;48016;50.284;18.860;2023-07-22T12:47:29;3.20;;;2.70;;
62056;SDS011;48016;50.284;18.860;2023-07-22T12:49:56;4.40;;;2.50;;
62056;SDS011;48016;50.284;18.860;2023-07-22T12:52:23;2.80;;;2.40;;
62056;SDS011;48016;50.284;18.860;2023-07-22T12:54:49;3.50;;;2.80;;
62056;SDS011;48016;50.284;18.860;2023-07-22T12:57:16;3.90;;;2.60;;
62056;SDS011;48016;50.284;18.860;2023-07-22T12:59:42;4.30;;;2.70;;
62056;SDS011;48016;50.284;18.860;2023-07-22T13:02:09;4.50;;;2.90;;
62056;SDS011;48016;50.284;18.860;2023-07-22T13:04:35;5.40;;;2.90;;
62056;SDS011;48016;50.284;18.860;2023-07-22T13:07:02;5.10;;;2.90;;
62056;SDS011;48016;50.284;18.860;2023-07-22T13:09:29;3.80;;;2.70;;
62056;SDS011;48016;50.284;18.860;2023-07-22T13:11:56;3.80;;;3.20;;
62056;SDS011;48016;50.284;18.860;2023-07-22T13:14:22;5.00;;;3.00;;
62056;SDS011;48016;50.284;18.860;2023-07-22T13:16:49;4.10;;;2.80;;
62056;SDS011;48016;50.284;18.860;2023-07-22T13:21:42;3.40;;;2.60;;
62056;SDS011;48016;50.284;18.860;2023-07-22T13:24:09;3.80;;;2.70;;
62056;SDS011;48016;50.284;18.860;2023-07-22T13:26:35;5.00;;;3.10;;
62056;SDS011;48016;50.284;18.860;2023-07-22T13:29:02;4.70;;;3.00;;
62056;SDS011;48016;50.284;18.860;2023-07-22T13:31:29;4.50;;;2.90;;
62056;SDS011;48016;50.284;18.860;2023-07-22T13:33:55;4.60;;;2.90;;
62056;SDS011;48016;50.284;18.860;2023-07-22T13:36:22;4.80;;;2.80;;
62056;SDS011;48016;50.284;18.860;2023-07-22T13:38:48;3.90;;;2.80;;
62056;SDS011;48016;50.284;18.860;2023-07-22T13:41:15;4.20;;;3.00;;
62056;SDS011;48016;50.284;18.860;2023-07-22T13:43:41;5.00;;;2.90;;
62056;SDS011;48016;50.284;18.860;2023-07-22T13:46:08;6.60;;;2.80;;
62056;SDS011;48016;50.284;18.860;2023-07-22T13:48:34;4.20;;;3.00;;
62056;SDS011;48016;50.284;18.860;2023-07-22T13:51:01;3.80;;;2.50;;
62056;SDS011;48016;50.284;18.860;2023-07-22T13:53:28;3.60;;;2.70;;
62056;SDS011;48016;50.284;18.860;2023-07-22T13:55:54;3.80;;;2.70;;
62056;SDS011;48016;50.284;18.860;2023-07-22T13:58:21;4.80;;;2.60;;
62056;SDS011;48016;50.284;18.860;2023-07-22T14:00:48;4.10;;;2.60;;
62056;SDS011;48016;50.284;18.860;2023-07-22T14:03:14;3.20;;;2.40;;
62056;SDS011;48016;50.284;18.860;2023-07-22T14:08:08;4.30;;;2.60;;
62056;SDS011;48016;50.284;18.860;2023-07-22T14:10:35;2.90;;;2.40;;
62056;SDS011;48016;50.284;18.860;2023-07-22T14:13:01;3.40;;;2.60;;
62056;SDS011;48016;50.284;18.860;2023-07-22T14:15:29;3.90;;;2.40;;
62056;SDS011;48016;50.284;18.860;2023-07-22T14:17:55;3.60;;;2.80;;
62056;SDS011;48016;50.284;18.860;2023-07-22T14:20:22;4.90;;;2.80;;
62056;SDS011;48016;50.284;18.860;2023-07-22T14:22:48;3.00;;;2.50;;
62056;SDS011;48016;50.284;18.860;2023-07-22T14:25:18;4.30;;;2.60;;
62056;SDS011;48016;50.284;18.860;2023-07-22T14:27:45;2.80;;;2.30;;
62056;SDS011;48016;50.284;18.860;2023-07-22T14:30:11;3.60;;;2.40;;
62056;SDS011;48016;50.284;18.860;2023-07-22T14:32:38;2.90;;;2.20;;
62056;SDS011;48016;50.284;18.860;2023-07-22T14:35:05;3.10;;;2.40;;
62056;SDS011;48016;50.284;18.860;2023-07-22T14:39:59;3.40;;;2.10;;
62056;SDS011;48016;50.284;18.860;2023-07-22T14:42:26;3.70;;;2.60;;
62056;SDS011;48016;50.284;18.860;2023-07-22T14:44:52;3.80;;;2.50;;
62056;SDS011;48016;50.284;18.860;2023-07-22T14:47:19;3.40;;;2.40;;
62056;SDS011;48016;50.284;18.860;2023-07-22T14:49:45;3.50;;;2.50;;
62056;SDS011;48016;50.284;18.860;2023-07-22T14:52:12;3.60;;;2.30;;
62056;SDS011;48016;50.284;18.860;2023-07-22T14:54:39;4.50;;;2.50;;
62056;SDS011;48016;50.284;18.860;2023-07-22T14:57:05;6.80;;;2.40;;
62056;SDS011;48016;50.284;18.860;2023-07-22T14:59:32;3.20;;;2.50;;
62056;SDS011;48016;50.284;18.860;2023-07-22T15:01:59;3.50;;;2.50;;
62056;SDS011;48016;50.284;18.860;2023-07-22T15:04:25;4.40;;;2.60;;
62056;SDS011;48016;50.284;18.860;2023-07-22T15:06:52;4.20;;;2.00;;
62056;SDS011;48016;50.284;18.860;2023-07-22T15:09:18;3.60;;;2.30;;
62056;SDS011;48016;50.284;18.860;2023-07-22T15:11:46;4.10;;;2.20;;
62056;SDS011;48016;50.284;18.860;2023-07-22T15:14:13;5.10;;;2.70;;